sensor_id;sensor_type;location;lat;lon;timestamp;P1;durP1;ratioP1;P2;durP2;ratioP2
64543;SDS011;50936;51.660;5.616;2023-09-19T00:00:41;6.20;;;1.90;;
64543;SDS011;50936;51.660;5.616;2023-09-19T00:03:29;7.47;;;1.85;;
64543;SDS011;50936;51.660;5.616;2023-09-19T00:06:18;5.47;;;1.65;;
64543;SDS011;50936;51.660;5.616;2023-09-19T00:09:05;5.28;;;1.65;;
64543;SDS011;50936;51.660;5.616;2023-09-19T00:11:57;6.88;;;1.75;;
64543;SDS011;50936;51.660;5.616;2023-09-19T00:14:44;6.22;;;1.80;;
64543;SDS011;50936;51.660;5.616;2023-09-19T00:17:31;7.10;;;1.80;;
64543;SDS011;50936;51.660;5.616;2023-09-19T00:20:19;7.03;;;1.90;;
64543;SDS011;50936;51.660;5.616;2023-09-19T00:23:08;7.47;;;1.92;;
64543;SDS011;50936;51.660;5.616;2023-09-19T00:25:58;6.90;;;1.73;;
64543;SDS011;50936;51.660;5.616;2023-09-19T00:28:47;6.68;;;2.00;;
64543;SDS011;50936;51.660;5.616;2023-09-19T00:31:34;6.38;;;1.73;;
64543;SDS011;50936;51.660;5.616;2023-09-19T00:34:24;7.75;;;1.90;;
64543;SDS011;50936;51.660;5.616;2023-09-19T00:37:11;5.00;;;1.77;;
64543;SDS011;50936;51.660;5.616;2023-09-19T00:39:59;7.00;;;1.90;;
64543;SDS011;50936;51.660;5.616;2023-09-19T00:42:46;6.88;;;1.80;;
64543;SDS011;50936;51.660;5.616;2023-09-19T00:45:35;7.25;;;1.80;;
64543;SDS011;50936;51.660;5.616;2023-09-19T00:48:28;6.15;;;1.70;;
64543;SDS011;50936;51.660;5.616;2023-09-19T00:51:17;7.20;;;1.90;;
64543;SDS011;50936;51.660;5.616;2023-09-19T00:54:07;6.63;;;1.98;;
64543;SDS011;50936;51.660;5.616;2023-09-19T00:56:55;5.85;;;1.73;;
64543;SDS011;50936;51.660;5.616;2023-09-19T00:59:42;7.07;;;1.70;;
64543;SDS011;50936;51.660;5.616;2023-09-19T01:02:30;8.05;;;1.92;;
64543;SDS011;50936;51.660;5.616;2023-09-19T01:05:19;5.15;;;1.70;;
64543;SDS011;50936;51.660;5.616;2023-09-19T01:08:06;6.80;;;1.90;;
64543;SDS011;50936;51.660;5.616;2023-09-19T01:10:55;5.10;;;1.83;;
64543;SDS011;50936;51.660;5.616;2023-09-19T01:17:34;6.53;;;1.95;;
64543;SDS011;50936;51.660;5.616;2023-09-19T01:30:47;5.75;;;1.85;;
64543;SDS011;50936;51.660;5.616;2023-09-19T01:33:54;6.03;;;1.80;;
64543;SDS011;50936;51.660;5.616;2023-09-19T01:36:50;7.47;;;2.05;;
64543;SDS011;50936;51.660;5.616;2023-09-19T01:39:37;6.13;;;1.80;;
64543;SDS011;50936;51.660;5.616;2023-09-19T01:52:03;7.43;;;1.85;;
64543;SDS011;50936;51.660;5.616;2023-09-19T01:55:05;6.82;;;1.65;;
64543;SDS011;50936;51.660;5.616;2023-09-19T02:01:09;9.63;;;1.83;;
64543;SDS011;50936;51.660;5.616;2023-09-19T02:04:03;9.57;;;2.30;;
64543;SDS011;50936;51.660;5.616;2023-09-19T02:06:51;6.13;;;1.73;;
64543;SDS011;50936;51.660;5.616;2023-09-19T02:09:38;7.70;;;1.98;;
64543;SDS011;50936;51.660;5.616;2023-09-19T02:12:26;6.55;;;1.65;;
64543;SDS011;50936;51.660;5.616;2023-09-19T02:15:14;5.10;;;1.67;;
64543;SDS011;50936;51.660;5.616;2023-09-19T02:18:02;5.55;;;1.70;;
64543;SDS011;50936;51.660;5.616;2023-09-19T02:20:50;6.25;;;1.90;;
64543;SDS011;50936;51.660;5.616;2023-09-19T02:23:39;7.80;;;1.75;;
64543;SDS011;50936;51.660;5.616;2023-09-19T02:26:28;6.15;;;1.65;;
64543;SDS011;50936;51.660;5.616;2023-09-19T02:29:15;5.80;;;1.60;;
64543;SDS011;50936;51.660;5.616;2023-09-19T02:32:02;6.25;;;1.80;;
64543;SDS011;50936;51.660;5.616;2023-09-19T02:34:51;7.60;;;2.00;;
64543;SDS011;50936;51.660;5.616;2023-09-19T02:37:38;5.10;;;1.50;;
64543;SDS011;50936;51.660;5.616;2023-09-19T02:40:25;5.28;;;1.80;;
64543;SDS011;50936;51.660;5.616;2023-09-19T02:43:13;6.93;;;1.90;;
64543;SDS011;50936;51.660;5.616;2023-09-19T02:46:00;6.18;;;1.80;;
64543;SDS011;50936;51.660;5.616;2023-09-19T02:48:49;5.85;;;1.58;;
64543;SDS011;50936;51.660;5.616;2023-09-19T02:51:37;6.68;;;1.80;;
64543;SDS011;50936;51.660;5.616;2023-09-19T02:54:24;4.95;;;1.65;;
64543;SDS011;50936;51.660;5.616;2023-09-19T02:57:11;6.40;;;1.60;;
64543;SDS011;50936;51.660;5.616;2023-09-19T03:00:01;6.18;;;1.80;;
64543;SDS011;50936;51.660;5.616;2023-09-19T03:02:53;5.15;;;1.67;;
64543;SDS011;50936;51.660;5.616;2023-09-19T03:05:42;7.07;;;1.38;;
64543;SDS011;50936;51.660;5.616;2023-09-19T03:08:37;5.03;;;1.70;;
64543;SDS011;50936;51.660;5.616;2023-09-19T03:11:26;6.30;;;1.80;;
64543;SDS011;50936;51.660;5.616;2023-09-19T03:14:16;6.57;;;2.08;;
64543;SDS011;50936;51.660;5.616;2023-09-19T03:17:05;7.10;;;2.08;;
64543;SDS011;50936;51.660;5.616;2023-09-19T03:19:52;5.68;;;1.50;;
64543;SDS011;50936;51.660;5.616;2023-09-19T03:22:40;7.28;;;1.80;;
64543;SDS011;50936;51.660;5.616;2023-09-19T03:25:28;7.28;;;1.73;;
64543;SDS011;50936;51.660;5.616;2023-09-19T03:28:15;5.55;;;1.67;;
64543;SDS011;50936;51.660;5.616;2023-09-19T03:31:04;6.53;;;1.58;;
64543;SDS011;50936;51.660;5.616;2023-09-19T03:33:55;7.38;;;1.70;;
64543;SDS011;50936;51.660;5.616;2023-09-19T03:36:42;8.02;;;2.00;;
64543;SDS011;50936;51.660;5.616;2023-09-19T03:39:30;4.97;;;1.50;;
64543;SDS011;50936;51.660;5.616;2023-09-19T03:42:17;3.90;;;1.55;;
64543;SDS011;50936;51.660;5.616;2023-09-19T03:45:12;6.60;;;1.60;;
64543;SDS011;50936;51.660;5.616;2023-09-19T03:48:09;4.90;;;1.60;;
64543;SDS011;50936;51.660;5.616;2023-09-19T03:50:57;4.28;;;1.60;;
64543;SDS011;50936;51.660;5.616;2023-09-19T03:53:44;8.77;;;1.90;;
64543;SDS011;50936;51.660;5.616;2023-09-19T03:56:31;4.63;;;1.50;;
64543;SDS011;50936;51.660;5.616;2023-09-19T03:59:19;5.78;;;1.40;;
64543;SDS011;50936;51.660;5.616;2023-09-19T04:02:07;5.65;;;1.88;;
64543;SDS011;50936;51.660;5.616;2023-09-19T04:04:58;7.95;;;1.75;;
64543;SDS011;50936;51.660;5.616;2023-09-19T04:07:45;5.97;;;1.85;;
64543;SDS011;50936;51.660;5.616;2023-09-19T04:10:33;5.13;;;1.65;;
64543;SDS011;50936;51.660;5.616;2023-09-19T04:13:20;5.18;;;1.50;;
64543;SDS011;50936;51.660;5.616;2023-09-19T04:16:08;6.07;;;1.60;;
64543;SDS011;50936;51.660;5.616;2023-09-19T04:18:56;5.68;;;1.73;;
64543;SDS011;50936;51.660;5.616;2023-09-19T04:21:43;8.20;;;1.83;;
64543;SDS011;50936;51.660;5.616;2023-09-19T04:24:31;6.78;;;1.70;;
64543;SDS011;50936;51.660;5.616;2023-09-19T04:27:19;7.00;;;1.77;;
64543;SDS011;50936;51.660;5.616;2023-09-19T04:30:07;7.38;;;2.13;;
64543;SDS011;50936;51.660;5.616;2023-09-19T04:32:58;5.22;;;1.77;;
64543;SDS011;50936;51.660;5.616;2023-09-19T04:35:52;5.50;;;1.60;;
64543;SDS011;50936;51.660;5.616;2023-09-19T04:38:40;7.55;;;2.38;;
64543;SDS011;50936;51.660;5.616;2023-09-19T04:41:27;7.70;;;2.00;;
64543;SDS011;50936;51.660;5.616;2023-09-19T04:44:14;7.10;;;1.60;;
64543;SDS011;50936;51.660;5.616;2023-09-19T04:47:02;4.90;;;1.65;;
64543;SDS011;50936;51.660;5.616;2023-09-19T04:49:50;7.43;;;1.80;;
64543;SDS011;50936;51.660;5.616;2023-09-19T04:52:38;6.25;;;1.60;;
64543;SDS011;50936;51.660;5.616;2023-09-19T04:55:32;7.30;;;1.70;;
64543;SDS011;50936;51.660;5.616;2023-09-19T04:58:21;6.75;;;1.70;;
64543;SDS011;50936;51.660;5.616;2023-09-19T05:01:09;6.20;;;1.42;;
64543;SDS011;50936;51.660;5.616;2023-09-19T05:03:58;5.43;;;1.70;;
64543;SDS011;50936;51.660;5.616;2023-09-19T05:06:46;4.68;;;1.70;;
64543;SDS011;50936;51.660;5.616;2023-09-19T05:09:33;3.83;;;1.33;;
64543;SDS011;50936;51.660;5.616;2023-09-19T05:12:21;6.20;;;1.70;;
64543;SDS011;50936;51.660;5.616;2023-09-19T05:15:08;6.00;;;1.73;;
64543;SDS011;50936;51.660;5.616;2023-09-19T05:17:55;6.00;;;1.55;;
64543;SDS011;50936;51.660;5.616;2023-09-19T05:20:44;5.07;;;1.50;;
64543;SDS011;50936;51.660;5.616;2023-09-19T05:23:31;5.78;;;1.67;;
64543;SDS011;50936;51.660;5.616;2023-09-19T05:26:19;5.00;;;1.50;;
64543;SDS011;50936;51.660;5.616;2023-09-19T05:29:07;6.28;;;1.70;;
64543;SDS011;50936;51.660;5.616;2023-09-19T05:31:54;4.72;;;1.50;;
64543;SDS011;50936;51.660;5.616;2023-09-19T05:34:41;5.82;;;1.70;;
64543;SDS011;50936;51.660;5.616;2023-09-19T05:37:29;5.05;;;1.52;;
64543;SDS011;50936;51.660;5.616;2023-09-19T05:40:19;6.03;;;1.40;;
64543;SDS011;50936;51.660;5.616;2023-09-19T05:43:06;4.43;;;1.50;;
64543;SDS011;50936;51.660;5.616;2023-09-19T05:45:54;4.70;;;1.50;;
64543;SDS011;50936;51.660;5.616;2023-09-19T05:48:43;7.40;;;1.90;;
64543;SDS011;50936;51.660;5.616;2023-09-19T05:51:31;6.30;;;1.77;;
64543;SDS011;50936;51.660;5.616;2023-09-19T05:54:18;5.10;;;1.70;;
64543;SDS011;50936;51.660;5.616;2023-09-19T05:57:06;7.47;;;1.75;;
64543;SDS011;50936;51.660;5.616;2023-09-19T05:59:53;6.97;;;2.00;;
64543;SDS011;50936;51.660;5.616;2023-09-19T06:02:41;4.78;;;1.70;;
64543;SDS011;50936;51.660;5.616;2023-09-19T06:05:28;6.03;;;1.45;;
64543;SDS011;50936;51.660;5.616;2023-09-19T06:08:17;6.10;;;1.58;;
64543;SDS011;50936;51.660;5.616;2023-09-19T06:11:04;7.03;;;1.80;;
64543;SDS011;50936;51.660;5.616;2023-09-19T06:13:54;15.55;;;2.03;;
64543;SDS011;50936;51.660;5.616;2023-09-19T06:16:41;6.32;;;1.77;;
64543;SDS011;50936;51.660;5.616;2023-09-19T06:19:28;6.80;;;1.70;;
64543;SDS011;50936;51.660;5.616;2023-09-19T06:22:16;5.65;;;1.65;;
64543;SDS011;50936;51.660;5.616;2023-09-19T06:25:06;5.95;;;1.60;;
64543;SDS011;50936;51.660;5.616;2023-09-19T06:27:54;6.57;;;2.15;;
64543;SDS011;50936;51.660;5.616;2023-09-19T06:30:42;6.70;;;1.60;;
64543;SDS011;50936;51.660;5.616;2023-09-19T06:33:30;4.43;;;1.48;;
64543;SDS011;50936;51.660;5.616;2023-09-19T06:36:18;7.05;;;1.70;;
64543;SDS011;50936;51.660;5.616;2023-09-19T06:39:06;6.07;;;1.92;;
64543;SDS011;50936;51.660;5.616;2023-09-19T06:41:57;8.63;;;1.80;;
64543;SDS011;50936;51.660;5.616;2023-09-19T06:44:45;6.20;;;1.77;;
64543;SDS011;50936;51.660;5.616;2023-09-19T06:47:32;7.70;;;1.92;;
64543;SDS011;50936;51.660;5.616;2023-09-19T06:50:21;9.32;;;2.10;;
64543;SDS011;50936;51.660;5.616;2023-09-19T06:53:10;8.93;;;2.38;;
64543;SDS011;50936;51.660;5.616;2023-09-19T06:55:57;8.90;;;1.88;;
64543;SDS011;50936;51.660;5.616;2023-09-19T06:58:45;8.05;;;1.85;;
64543;SDS011;50936;51.660;5.616;2023-09-19T07:01:33;9.18;;;2.03;;
64543;SDS011;50936;51.660;5.616;2023-09-19T07:04:21;8.07;;;2.20;;
64543;SDS011;50936;51.660;5.616;2023-09-19T07:07:08;9.35;;;2.42;;
64543;SDS011;50936;51.660;5.616;2023-09-19T07:09:56;8.05;;;2.08;;
64543;SDS011;50936;51.660;5.616;2023-09-19T07:12:44;10.57;;;2.50;;
64543;SDS011;50936;51.660;5.616;2023-09-19T07:15:32;8.75;;;2.20;;
64543;SDS011;50936;51.660;5.616;2023-09-19T07:18:22;7.30;;;2.20;;
64543;SDS011;50936;51.660;5.616;2023-09-19T07:21:09;9.70;;;2.13;;
64543;SDS011;50936;51.660;5.616;2023-09-19T07:24:02;9.98;;;2.33;;
64543;SDS011;50936;51.660;5.616;2023-09-19T07:26:50;7.15;;;1.95;;
64543;SDS011;50936;51.660;5.616;2023-09-19T07:29:37;6.05;;;1.90;;
64543;SDS011;50936;51.660;5.616;2023-09-19T07:32:24;5.93;;;2.20;;
64543;SDS011;50936;51.660;5.616;2023-09-19T07:35:12;11.50;;;2.63;;
64543;SDS011;50936;51.660;5.616;2023-09-19T07:37:59;7.72;;;2.03;;
64543;SDS011;50936;51.660;5.616;2023-09-19T07:40:48;8.27;;;2.10;;
64543;SDS011;50936;51.660;5.616;2023-09-19T07:43:35;8.27;;;1.80;;
64543;SDS011;50936;51.660;5.616;2023-09-19T07:46:25;8.60;;;2.10;;
64543;SDS011;50936;51.660;5.616;2023-09-19T07:49:13;7.60;;;1.90;;
64543;SDS011;50936;51.660;5.616;2023-09-19T07:52:00;5.22;;;1.63;;
64543;SDS011;50936;51.660;5.616;2023-09-19T07:54:48;5.18;;;1.70;;
64543;SDS011;50936;51.660;5.616;2023-09-19T07:57:36;7.25;;;2.10;;
64543;SDS011;50936;51.660;5.616;2023-09-19T08:00:24;8.52;;;2.05;;
64543;SDS011;50936;51.660;5.616;2023-09-19T08:03:11;7.88;;;1.75;;
64543;SDS011;50936;51.660;5.616;2023-09-19T08:06:03;6.20;;;1.90;;
64543;SDS011;50936;51.660;5.616;2023-09-19T08:08:51;11.18;;;2.50;;
64543;SDS011;50936;51.660;5.616;2023-09-19T08:11:40;8.35;;;1.95;;
64543;SDS011;50936;51.660;5.616;2023-09-19T08:14:27;6.93;;;2.10;;
64543;SDS011;50936;51.660;5.616;2023-09-19T08:17:15;6.00;;;1.85;;
64543;SDS011;50936;51.660;5.616;2023-09-19T08:20:03;7.68;;;2.00;;
64543;SDS011;50936;51.660;5.616;2023-09-19T08:22:52;7.70;;;2.22;;
64543;SDS011;50936;51.660;5.616;2023-09-19T08:25:43;6.72;;;1.85;;
64543;SDS011;50936;51.660;5.616;2023-09-19T08:28:32;7.00;;;2.05;;
64543;SDS011;50936;51.660;5.616;2023-09-19T08:31:20;7.95;;;1.50;;
64543;SDS011;50936;51.660;5.616;2023-09-19T08:34:08;6.35;;;1.70;;
64543;SDS011;50936;51.660;5.616;2023-09-19T08:36:55;6.75;;;2.00;;
64543;SDS011;50936;51.660;5.616;2023-09-19T08:39:45;5.57;;;1.80;;
64543;SDS011;50936;51.660;5.616;2023-09-19T08:42:46;7.70;;;2.22;;
64543;SDS011;50936;51.660;5.616;2023-09-19T08:45:40;7.80;;;1.90;;
64543;SDS011;50936;51.660;5.616;2023-09-19T08:48:29;10.25;;;2.10;;
64543;SDS011;50936;51.660;5.616;2023-09-19T08:51:30;10.98;;;2.05;;
64543;SDS011;50936;51.660;5.616;2023-09-19T08:54:33;11.40;;;1.73;;
64543;SDS011;50936;51.660;5.616;2023-09-19T08:57:26;10.15;;;2.15;;
64543;SDS011;50936;51.660;5.616;2023-09-19T09:00:16;10.60;;;1.98;;
64543;SDS011;50936;51.660;5.616;2023-09-19T09:03:08;10.55;;;2.13;;
64543;SDS011;50936;51.660;5.616;2023-09-19T09:05:58;11.90;;;1.92;;
64543;SDS011;50936;51.660;5.616;2023-09-19T09:08:46;6.63;;;1.80;;
64543;SDS011;50936;51.660;5.616;2023-09-19T09:11:37;7.25;;;1.45;;
64543;SDS011;50936;51.660;5.616;2023-09-19T09:14:26;4.88;;;1.70;;
64543;SDS011;50936;51.660;5.616;2023-09-19T09:17:14;8.18;;;1.95;;
64543;SDS011;50936;51.660;5.616;2023-09-19T09:20:02;7.80;;;1.90;;
64543;SDS011;50936;51.660;5.616;2023-09-19T09:22:55;8.45;;;2.00;;
64543;SDS011;50936;51.660;5.616;2023-09-19T09:25:51;6.45;;;1.52;;
64543;SDS011;50936;51.660;5.616;2023-09-19T09:28:48;9.65;;;2.17;;
64543;SDS011;50936;51.660;5.616;2023-09-19T09:31:36;5.10;;;1.70;;
64543;SDS011;50936;51.660;5.616;2023-09-19T09:34:32;7.85;;;1.75;;
64543;SDS011;50936;51.660;5.616;2023-09-19T09:37:21;8.63;;;2.25;;
64543;SDS011;50936;51.660;5.616;2023-09-19T09:40:11;8.52;;;2.22;;
64543;SDS011;50936;51.660;5.616;2023-09-19T09:43:24;7.85;;;1.88;;
64543;SDS011;50936;51.660;5.616;2023-09-19T09:46:17;7.13;;;1.60;;
64543;SDS011;50936;51.660;5.616;2023-09-19T09:49:10;6.38;;;2.10;;
64543;SDS011;50936;51.660;5.616;2023-09-19T09:52:12;6.43;;;2.08;;
64543;SDS011;50936;51.660;5.616;2023-09-19T09:55:06;8.32;;;2.15;;
64543;SDS011;50936;51.660;5.616;2023-09-19T09:58:15;6.18;;;1.67;;
64543;SDS011;50936;51.660;5.616;2023-09-19T10:01:05;5.68;;;1.70;;
64543;SDS011;50936;51.660;5.616;2023-09-19T10:03:57;6.95;;;2.03;;
64543;SDS011;50936;51.660;5.616;2023-09-19T10:06:47;7.53;;;1.88;;
64543;SDS011;50936;51.660;5.616;2023-09-19T10:09:45;8.05;;;2.20;;
64543;SDS011;50936;51.660;5.616;2023-09-19T10:12:34;7.38;;;2.17;;
64543;SDS011;50936;51.660;5.616;2023-09-19T10:15:25;7.15;;;2.10;;
64543;SDS011;50936;51.660;5.616;2023-09-19T10:18:20;9.75;;;2.03;;
64543;SDS011;50936;51.660;5.616;2023-09-19T10:21:12;7.72;;;2.30;;
64543;SDS011;50936;51.660;5.616;2023-09-19T10:23:59;8.10;;;2.05;;
64543;SDS011;50936;51.660;5.616;2023-09-19T10:26:54;7.53;;;2.17;;
64543;SDS011;50936;51.660;5.616;2023-09-19T10:29:44;9.43;;;2.05;;
64543;SDS011;50936;51.660;5.616;2023-09-19T10:32:36;8.35;;;1.92;;
64543;SDS011;50936;51.660;5.616;2023-09-19T10:35:29;10.07;;;2.10;;
64543;SDS011;50936;51.660;5.616;2023-09-19T10:38:19;6.25;;;1.95;;
64543;SDS011;50936;51.660;5.616;2023-09-19T10:41:11;7.47;;;2.08;;
64543;SDS011;50936;51.660;5.616;2023-09-19T10:44:05;6.95;;;2.00;;
64543;SDS011;50936;51.660;5.616;2023-09-19T10:46:53;7.18;;;1.80;;
64543;SDS011;50936;51.660;5.616;2023-09-19T10:49:44;7.85;;;1.75;;
64543;SDS011;50936;51.660;5.616;2023-09-19T10:52:37;5.95;;;1.88;;
64543;SDS011;50936;51.660;5.616;2023-09-19T10:55:29;4.50;;;1.73;;
64543;SDS011;50936;51.660;5.616;2023-09-19T10:58:53;7.80;;;1.83;;
64543;SDS011;50936;51.660;5.616;2023-09-19T11:01:41;6.65;;;1.73;;
64543;SDS011;50936;51.660;5.616;2023-09-19T11:04:35;5.90;;;1.70;;
64543;SDS011;50936;51.660;5.616;2023-09-19T11:07:23;5.80;;;1.80;;
64543;SDS011;50936;51.660;5.616;2023-09-19T11:10:29;8.05;;;1.83;;
64543;SDS011;50936;51.660;5.616;2023-09-19T11:13:38;5.35;;;1.50;;
64543;SDS011;50936;51.660;5.616;2023-09-19T11:16:27;8.00;;;1.77;;
64543;SDS011;50936;51.660;5.616;2023-09-19T11:19:15;7.03;;;1.80;;
64543;SDS011;50936;51.660;5.616;2023-09-19T11:22:03;6.90;;;1.60;;
64543;SDS011;50936;51.660;5.616;2023-09-19T11:24:51;8.50;;;2.20;;
64543;SDS011;50936;51.660;5.616;2023-09-19T11:27:38;9.05;;;2.00;;
64543;SDS011;50936;51.660;5.616;2023-09-19T11:31:40;4.40;;;1.63;;
64543;SDS011;50936;51.660;5.616;2023-09-19T11:40:19;4.80;;;1.70;;
64543;SDS011;50936;51.660;5.616;2023-09-19T11:46:17;3.70;;;1.30;;
64543;SDS011;50936;51.660;5.616;2023-09-19T11:49:08;5.95;;;1.65;;
64543;SDS011;50936;51.660;5.616;2023-09-19T11:52:02;5.05;;;1.63;;
64543;SDS011;50936;51.660;5.616;2023-09-19T11:54:58;6.57;;;1.35;;
64543;SDS011;50936;51.660;5.616;2023-09-19T11:57:48;6.53;;;1.67;;
64543;SDS011;50936;51.660;5.616;2023-09-19T12:00:37;5.75;;;1.85;;
64543;SDS011;50936;51.660;5.616;2023-09-19T12:03:29;4.32;;;1.25;;
64543;SDS011;50936;51.660;5.616;2023-09-19T12:06:18;5.20;;;1.55;;
64543;SDS011;50936;51.660;5.616;2023-09-19T12:09:06;5.97;;;1.92;;
64543;SDS011;50936;51.660;5.616;2023-09-19T12:12:03;6.97;;;1.50;;
64543;SDS011;50936;51.660;5.616;2023-09-19T12:14:51;6.03;;;1.60;;
64543;SDS011;50936;51.660;5.616;2023-09-19T12:17:39;3.55;;;1.25;;
64543;SDS011;50936;51.660;5.616;2023-09-19T12:20:42;4.70;;;1.27;;
64543;SDS011;50936;51.660;5.616;2023-09-19T12:23:36;5.93;;;1.27;;
64543;SDS011;50936;51.660;5.616;2023-09-19T12:26:26;10.95;;;1.95;;
64543;SDS011;50936;51.660;5.616;2023-09-19T12:29:17;5.55;;;1.45;;
64543;SDS011;50936;51.660;5.616;2023-09-19T12:32:05;5.32;;;1.40;;
64543;SDS011;50936;51.660;5.616;2023-09-19T12:34:53;3.17;;;1.20;;
64543;SDS011;50936;51.660;5.616;2023-09-19T12:37:45;3.83;;;1.17;;
64543;SDS011;50936;51.660;5.616;2023-09-19T12:40:42;5.15;;;1.25;;
64543;SDS011;50936;51.660;5.616;2023-09-19T12:43:30;5.05;;;0.90;;
64543;SDS011;50936;51.660;5.616;2023-09-19T12:46:21;4.85;;;1.27;;
64543;SDS011;50936;51.660;5.616;2023-09-19T12:49:19;2.90;;;1.10;;
64543;SDS011;50936;51.660;5.616;2023-09-19T12:52:06;4.82;;;1.40;;
64543;SDS011;50936;51.660;5.616;2023-09-19T12:54:54;4.38;;;1.40;;
64543;SDS011;50936;51.660;5.616;2023-09-19T12:57:42;4.20;;;1.30;;
64543;SDS011;50936;51.660;5.616;2023-09-19T13:00:33;3.80;;;1.10;;
64543;SDS011;50936;51.660;5.616;2023-09-19T13:06:12;4.80;;;1.35;;
64543;SDS011;50936;51.660;5.616;2023-09-19T13:09:10;4.38;;;1.23;;
64543;SDS011;50936;51.660;5.616;2023-09-19T13:11:58;3.35;;;1.20;;
64543;SDS011;50936;51.660;5.616;2023-09-19T13:14:46;4.93;;;0.93;;
64543;SDS011;50936;51.660;5.616;2023-09-19T13:17:44;5.22;;;1.20;;
64543;SDS011;50936;51.660;5.616;2023-09-19T13:20:33;3.28;;;1.27;;
64543;SDS011;50936;51.660;5.616;2023-09-19T13:23:26;4.38;;;1.15;;
64543;SDS011;50936;51.660;5.616;2023-09-19T13:26:13;2.65;;;1.17;;
64543;SDS011;50936;51.660;5.616;2023-09-19T13:29:01;3.22;;;1.20;;
64543;SDS011;50936;51.660;5.616;2023-09-19T13:31:52;2.72;;;0.85;;
64543;SDS011;50936;51.660;5.616;2023-09-19T13:34:40;5.90;;;1.13;;
64543;SDS011;50936;51.660;5.616;2023-09-19T13:37:27;3.28;;;0.85;;
64543;SDS011;50936;51.660;5.616;2023-09-19T13:40:14;4.68;;;0.98;;
64543;SDS011;50936;51.660;5.616;2023-09-19T13:43:02;3.08;;;0.85;;
64543;SDS011;50936;51.660;5.616;2023-09-19T13:45:50;3.05;;;1.13;;
64543;SDS011;50936;51.660;5.616;2023-09-19T13:48:37;4.10;;;1.05;;
64543;SDS011;50936;51.660;5.616;2023-09-19T13:51:25;3.65;;;1.25;;
64543;SDS011;50936;51.660;5.616;2023-09-19T13:54:13;2.40;;;1.02;;
64543;SDS011;50936;51.660;5.616;2023-09-19T13:57:01;4.03;;;1.08;;
64543;SDS011;50936;51.660;5.616;2023-09-19T13:59:48;4.00;;;1.02;;
64543;SDS011;50936;51.660;5.616;2023-09-19T14:02:35;3.45;;;1.00;;
64543;SDS011;50936;51.660;5.616;2023-09-19T14:05:23;4.78;;;0.98;;
64543;SDS011;50936;51.660;5.616;2023-09-19T14:08:14;2.92;;;1.00;;
64543;SDS011;50936;51.660;5.616;2023-09-19T14:11:08;2.65;;;0.80;;
64543;SDS011;50936;51.660;5.616;2023-09-19T14:13:55;2.47;;;1.00;;
64543;SDS011;50936;51.660;5.616;2023-09-19T14:16:46;3.47;;;1.20;;
64543;SDS011;50936;51.660;5.616;2023-09-19T14:19:34;4.07;;;1.02;;
64543;SDS011;50936;51.660;5.616;2023-09-19T14:22:23;3.47;;;0.93;;
64543;SDS011;50936;51.660;5.616;2023-09-19T14:25:10;3.58;;;1.02;;
64543;SDS011;50936;51.660;5.616;2023-09-19T14:27:57;3.17;;;1.00;;
64543;SDS011;50936;51.660;5.616;2023-09-19T14:30:45;5.82;;;0.95;;
64543;SDS011;50936;51.660;5.616;2023-09-19T14:33:33;4.45;;;1.02;;
64543;SDS011;50936;51.660;5.616;2023-09-19T14:36:20;2.35;;;1.10;;
64543;SDS011;50936;51.660;5.616;2023-09-19T14:39:08;2.22;;;0.80;;
64543;SDS011;50936;51.660;5.616;2023-09-19T14:41:56;2.00;;;0.93;;
64543;SDS011;50936;51.660;5.616;2023-09-19T14:44:43;2.30;;;0.90;;
64543;SDS011;50936;51.660;5.616;2023-09-19T14:47:30;2.72;;;0.95;;
64543;SDS011;50936;51.660;5.616;2023-09-19T14:50:20;4.07;;;1.13;;
64543;SDS011;50936;51.660;5.616;2023-09-19T14:53:09;2.75;;;1.00;;
64543;SDS011;50936;51.660;5.616;2023-09-19T14:56:01;3.25;;;1.15;;
64543;SDS011;50936;51.660;5.616;2023-09-19T14:58:50;1.83;;;0.80;;
64543;SDS011;50936;51.660;5.616;2023-09-19T15:01:37;3.90;;;1.10;;
64543;SDS011;50936;51.660;5.616;2023-09-19T15:04:27;3.95;;;1.23;;
64543;SDS011;50936;51.660;5.616;2023-09-19T15:07:14;4.82;;;0.80;;
64543;SDS011;50936;51.660;5.616;2023-09-19T15:10:02;2.33;;;0.85;;
64543;SDS011;50936;51.660;5.616;2023-09-19T15:12:53;3.38;;;1.00;;
64543;SDS011;50936;51.660;5.616;2023-09-19T15:15:40;3.70;;;1.00;;
64543;SDS011;50936;51.660;5.616;2023-09-19T15:18:29;3.08;;;0.80;;
64543;SDS011;50936;51.660;5.616;2023-09-19T15:21:17;3.10;;;1.08;;
64543;SDS011;50936;51.660;5.616;2023-09-19T15:24:05;3.20;;;1.05;;
64543;SDS011;50936;51.660;5.616;2023-09-19T15:26:56;4.10;;;0.98;;
64543;SDS011;50936;51.660;5.616;2023-09-19T15:29:43;2.78;;;0.93;;
64543;SDS011;50936;51.660;5.616;2023-09-19T15:32:30;2.75;;;1.00;;
64543;SDS011;50936;51.660;5.616;2023-09-19T15:35:18;3.17;;;1.05;;
64543;SDS011;50936;51.660;5.616;2023-09-19T15:38:06;2.97;;;0.98;;
64543;SDS011;50936;51.660;5.616;2023-09-19T15:40:54;3.25;;;1.00;;
64543;SDS011;50936;51.660;5.616;2023-09-19T15:43:42;1.85;;;0.82;;
64543;SDS011;50936;51.660;5.616;2023-09-19T15:46:32;4.10;;;1.02;;
64543;SDS011;50936;51.660;5.616;2023-09-19T15:49:22;6.13;;;1.30;;
64543;SDS011;50936;51.660;5.616;2023-09-19T15:52:09;3.22;;;1.10;;
64543;SDS011;50936;51.660;5.616;2023-09-19T15:54:56;3.70;;;1.02;;
64543;SDS011;50936;51.660;5.616;2023-09-19T15:57:43;2.83;;;1.00;;
64543;SDS011;50936;51.660;5.616;2023-09-19T16:00:32;2.53;;;1.20;;
64543;SDS011;50936;51.660;5.616;2023-09-19T16:03:23;3.30;;;1.17;;
64543;SDS011;50936;51.660;5.616;2023-09-19T16:06:12;3.35;;;1.10;;
64543;SDS011;50936;51.660;5.616;2023-09-19T16:09:04;5.28;;;1.27;;
64543;SDS011;50936;51.660;5.616;2023-09-19T16:11:52;4.90;;;1.20;;
64543;SDS011;50936;51.660;5.616;2023-09-19T16:14:39;5.80;;;1.20;;
64543;SDS011;50936;51.660;5.616;2023-09-19T16:17:27;3.00;;;1.00;;
64543;SDS011;50936;51.660;5.616;2023-09-19T16:20:14;3.60;;;1.20;;
64543;SDS011;50936;51.660;5.616;2023-09-19T16:23:03;3.50;;;1.23;;
64543;SDS011;50936;51.660;5.616;2023-09-19T16:25:59;3.42;;;1.23;;
64543;SDS011;50936;51.660;5.616;2023-09-19T16:28:56;4.75;;;1.10;;
64543;SDS011;50936;51.660;5.616;2023-09-19T16:31:48;2.83;;;1.05;;
64543;SDS011;50936;51.660;5.616;2023-09-19T16:34:36;3.95;;;1.40;;
64543;SDS011;50936;51.660;5.616;2023-09-19T16:37:23;4.68;;;1.27;;
64543;SDS011;50936;51.660;5.616;2023-09-19T16:40:11;5.43;;;1.10;;
64543;SDS011;50936;51.660;5.616;2023-09-19T16:42:58;2.70;;;1.20;;
64543;SDS011;50936;51.660;5.616;2023-09-19T16:45:52;3.53;;;1.13;;
64543;SDS011;50936;51.660;5.616;2023-09-19T16:48:41;2.50;;;1.08;;
64543;SDS011;50936;51.660;5.616;2023-09-19T16:51:36;2.30;;;1.10;;
64543;SDS011;50936;51.660;5.616;2023-09-19T16:54:24;4.60;;;1.17;;
64543;SDS011;50936;51.660;5.616;2023-09-19T16:57:12;3.47;;;1.17;;
64543;SDS011;50936;51.660;5.616;2023-09-19T16:59:59;5.30;;;1.35;;
64543;SDS011;50936;51.660;5.616;2023-09-19T17:02:46;2.20;;;1.10;;
64543;SDS011;50936;51.660;5.616;2023-09-19T17:05:39;3.58;;;1.30;;
64543;SDS011;50936;51.660;5.616;2023-09-19T17:08:27;3.90;;;1.13;;
64543;SDS011;50936;51.660;5.616;2023-09-19T17:11:15;3.00;;;1.30;;
64543;SDS011;50936;51.660;5.616;2023-09-19T17:14:07;2.95;;;1.10;;
64543;SDS011;50936;51.660;5.616;2023-09-19T17:16:56;3.50;;;1.20;;
64543;SDS011;50936;51.660;5.616;2023-09-19T17:19:43;4.22;;;1.10;;
64543;SDS011;50936;51.660;5.616;2023-09-19T17:22:30;4.35;;;1.20;;
64543;SDS011;50936;51.660;5.616;2023-09-19T17:25:17;4.25;;;1.58;;
64543;SDS011;50936;51.660;5.616;2023-09-19T17:28:05;3.50;;;1.40;;
64543;SDS011;50936;51.660;5.616;2023-09-19T17:30:52;5.78;;;1.48;;
64543;SDS011;50936;51.660;5.616;2023-09-19T17:33:40;5.93;;;1.42;;
64543;SDS011;50936;51.660;5.616;2023-09-19T17:36:28;4.45;;;1.60;;
64543;SDS011;50936;51.660;5.616;2023-09-19T17:39:18;3.72;;;1.58;;
64543;SDS011;50936;51.660;5.616;2023-09-19T17:42:05;3.50;;;1.52;;